Ana Sayfa
METAR-TAF:

METAR-TAF

Havaalanları :

Balıkesir Koca Seyit Havalimanı

Edremit, Türkiye

Enlem: 39-33-16N, Boylam: 27-00-49E, yükseklik: 15 m

Güncel hava durumu gözlemi

Rapor saat 11:50 UTC de 1 saat ve 9 dakika önce yapıldı.
Rüzgar doğudan 19 kt, kuzeydoğu ve doğu/güneydoğu arasında değişken
Sıcaklık 32°C
Nem 38%
Basınç 1008 hPa
Görüş mesafesi 10 km veya daha fazla
3500 ft yükseklikte az bulutlu

METAR: LTFD 201150Z 08019KT 050V120 9999 FEW035 32/16 Q1008

Saat: 15:59 (12:59 UTC)

Tahmin

Rapor saat 10:40 UTC de 2 saat ve 19 dakika önce yapıldı.
Ayın 20'si saat 12 UTC'den ayın 20'si saat 21 UTC'ye kadar geçerli Tahmin
Rüzgar doğudan 18 kt
Görüş mesafesi 10 km veya daha fazla
3500 ft yükseklikte az bulutlu

TAF: LTFD 201040Z 2012/2021 08018KT 9999 FEW035

4.000'den fazla havaalanı için hava durumu gözlemleri ve tahminleri (METAR ve TAF raporları).

Kullanılabilir istasyonlar harita üzerinde sarı ve kırmızı noktalarla gösterilir.

İstasyonun adını görmek için fareyi noktanın üzerinde gezdirin.

Sonrasında hava gözlem ve tahminlerini görmek için tıklayın.

Haritayı değiştirmek için: yaklaştırmak için siyah artı işaretli yeşil düğmeye ve uzaklaştırmak için de eksi işaretli düğmeye hızla tıklayın; bitişik haritalar için yeşil okları kullanın.


METAR-TAF: